RYS6Z EPKT-LTBS
Flight info
| Callsign | RYS6Z |
|---|---|
| Flight time | N/A |
| Altitude | 33000 |
| Route | REGTO T195 RAZEC DCT KEKED DCT DVA DCT OSTOV DCT RODIP UN131 DUGLA UT350 NEXAM |
| Aircraft | B38M/M-SDE1FGHILORVWXY/HB1 |
Departure
| Time | N/A |
|---|---|
| Airport | Katowice Wojciech Korfanty International Airport (EPKT) |
Arrival
| Time | 2026-04-27 13:54 |
|---|---|
| Airport | Dalaman International Airport (LTBS) |
| Time | Latitude | Longitude | Altitude | Speed | Heading |
|---|---|---|---|---|---|
| 2026-04-27 12:44 | 43.44204 | 24.02811 | 33218 ft | 472 kts | 157° |
| 2026-04-27 12:45 | 43.38580 | 24.06542 | 33217 ft | 472 kts | 157° |
| 2026-04-27 12:45 | 43.32671 | 24.10454 | 33216 ft | 472 kts | 157° |
| 2026-04-27 12:46 | 43.26748 | 24.14367 | 33219 ft | 472 kts | 157° |
| 2026-04-27 12:46 | 43.20861 | 24.18248 | 33213 ft | 472 kts | 157° |
| 2026-04-27 12:47 | 43.14946 | 24.22138 | 33214 ft | 472 kts | 157° |
| 2026-04-27 12:47 | 43.09013 | 24.26031 | 33208 ft | 472 kts | 157° |
| 2026-04-27 12:48 | 43.03080 | 24.29918 | 33211 ft | 472 kts | 157° |
| 2026-04-27 12:48 | 42.97143 | 24.33798 | 33214 ft | 473 kts | 157° |
| 2026-04-27 12:49 | 42.91214 | 24.37665 | 33211 ft | 473 kts | 157° |
| 2026-04-27 12:49 | 42.85258 | 24.41540 | 33213 ft | 473 kts | 157° |
| 2026-04-27 12:50 | 42.79362 | 24.45368 | 33219 ft | 473 kts | 157° |
| 2026-04-27 12:50 | 42.73427 | 24.49213 | 33215 ft | 472 kts | 157° |
| 2026-04-27 12:51 | 42.67490 | 24.53053 | 33218 ft | 472 kts | 157° |
| 2026-04-27 12:51 | 42.61555 | 24.56881 | 33226 ft | 471 kts | 157° |
| 2026-04-27 12:52 | 42.55638 | 24.60690 | 33227 ft | 471 kts | 157° |
| 2026-04-27 12:52 | 42.49716 | 24.64496 | 33231 ft | 471 kts | 157° |
| 2026-04-27 12:53 | 42.40831 | 24.70188 | 33235 ft | 470 kts | 157° |
| 2026-04-27 12:53 | 42.34945 | 24.73950 | 33240 ft | 470 kts | 157° |
| 2026-04-27 12:54 | 42.29253 | 24.77580 | 33232 ft | 470 kts | 157° |
| 2026-04-27 12:54 | 42.23315 | 24.81359 | 33235 ft | 471 kts | 157° |
| 2026-04-27 12:55 | 42.17390 | 24.85123 | 33233 ft | 470 kts | 157° |
| 2026-04-27 12:55 | 42.11458 | 24.88883 | 33240 ft | 470 kts | 157° |
| 2026-04-27 12:56 | 42.05508 | 24.92646 | 33236 ft | 471 kts | 157° |
| 2026-04-27 12:56 | 41.99600 | 24.96375 | 33235 ft | 471 kts | 157° |
| 2026-04-27 12:57 | 41.93664 | 25.00115 | 33238 ft | 471 kts | 157° |
| 2026-04-27 12:57 | 41.87729 | 25.03846 | 33231 ft | 471 kts | 157° |
| 2026-04-27 12:58 | 41.81829 | 25.07547 | 33228 ft | 470 kts | 157° |
| 2026-04-27 12:58 | 41.75893 | 25.11263 | 33222 ft | 470 kts | 158° |
| 2026-04-27 12:59 | 41.69967 | 25.14966 | 33221 ft | 470 kts | 157° |
| 2026-04-27 12:59 | 41.64035 | 25.18683 | 33235 ft | 470 kts | 158° |
| 2026-04-27 13:00 | 41.58094 | 25.22361 | 33229 ft | 471 kts | 158° |
| 2026-04-27 13:00 | 41.52152 | 25.26050 | 33227 ft | 471 kts | 158° |
| 2026-04-27 13:01 | 41.46198 | 25.29739 | 33226 ft | 471 kts | 158° |
| 2026-04-27 13:01 | 41.40293 | 25.33391 | 33229 ft | 471 kts | 158° |
| 2026-04-27 13:02 | 41.34333 | 25.37069 | 33230 ft | 471 kts | 158° |
| 2026-04-27 13:02 | 41.29347 | 25.40141 | 33219 ft | 471 kts | 158° |
| 2026-04-27 13:03 | 41.22430 | 25.44393 | 33220 ft | 471 kts | 158° |
| 2026-04-27 13:03 | 41.16478 | 25.48045 | 33210 ft | 471 kts | 158° |
| 2026-04-27 13:04 | 41.10531 | 25.51686 | 33209 ft | 471 kts | 158° |
| 2026-04-27 13:04 | 41.04563 | 25.55332 | 33207 ft | 471 kts | 158° |
| 2026-04-27 13:05 | 40.98610 | 25.58962 | 33201 ft | 471 kts | 158° |
| 2026-04-27 13:05 | 40.92699 | 25.62559 | 33206 ft | 472 kts | 158° |
| 2026-04-27 13:06 | 40.86704 | 25.66200 | 33203 ft | 472 kts | 158° |
| 2026-04-27 13:06 | 40.80730 | 25.69821 | 33208 ft | 472 kts | 158° |
| 2026-04-27 13:07 | 40.74746 | 25.73444 | 33206 ft | 472 kts | 158° |
| 2026-04-27 13:07 | 40.68767 | 25.77055 | 33205 ft | 472 kts | 158° |
| 2026-04-27 13:08 | 40.62782 | 25.80661 | 33199 ft | 472 kts | 158° |
| 2026-04-27 13:08 | 40.57814 | 25.83651 | 33199 ft | 472 kts | 158° |
| 2026-04-27 13:09 | 40.51850 | 25.87292 | 33188 ft | 474 kts | 153° |
| 2026-04-27 13:09 | 40.49202 | 25.89863 | 33196 ft | 477 kts | 136° |
| 2026-04-27 13:09 | 40.46950 | 25.93078 | 33191 ft | 479 kts | 134° |
| 2026-04-27 13:10 | 40.42495 | 25.99592 | 33196 ft | 480 kts | 133° |
| 2026-04-27 13:10 | 40.38074 | 26.06166 | 33197 ft | 480 kts | 133° |
| 2026-04-27 13:11 | 40.33664 | 26.12731 | 33196 ft | 480 kts | 133° |
| 2026-04-27 13:11 | 40.29255 | 26.19282 | 33183 ft | 480 kts | 133° |
| 2026-04-27 13:12 | 40.24828 | 26.25846 | 33180 ft | 480 kts | 133° |
| 2026-04-27 13:12 | 40.20401 | 26.32396 | 33180 ft | 480 kts | 133° |
| 2026-04-27 13:13 | 40.15964 | 26.38948 | 33179 ft | 480 kts | 133° |
| 2026-04-27 13:13 | 40.11354 | 26.45234 | 33200 ft | 479 kts | 137° |
| 2026-04-27 13:14 | 40.06610 | 26.51296 | 33183 ft | 480 kts | 137° |
| 2026-04-27 13:14 | 40.01861 | 26.57414 | 33178 ft | 480 kts | 137° |
| 2026-04-27 13:15 | 39.97090 | 26.63553 | 33175 ft | 480 kts | 137° |
| 2026-04-27 13:15 | 39.92336 | 26.69659 | 33167 ft | 480 kts | 137° |
| 2026-04-27 13:16 | 39.87589 | 26.75743 | 33164 ft | 480 kts | 137° |
| 2026-04-27 13:16 | 39.82823 | 26.81839 | 33147 ft | 480 kts | 137° |
| 2026-04-27 13:17 | 39.78049 | 26.87934 | 33136 ft | 479 kts | 137° |
| 2026-04-27 13:17 | 39.73231 | 26.93866 | 33117 ft | 478 kts | 138° |
| 2026-04-27 13:18 | 39.68391 | 26.99812 | 33113 ft | 478 kts | 138° |
| 2026-04-27 13:18 | 39.63590 | 27.05702 | 33102 ft | 477 kts | 138° |
| 2026-04-27 13:19 | 39.58763 | 27.11614 | 33100 ft | 477 kts | 138° |
| 2026-04-27 13:19 | 39.53943 | 27.17504 | 33108 ft | 477 kts | 138° |
| 2026-04-27 13:20 | 39.48933 | 27.23128 | 33106 ft | 473 kts | 151° |
| 2026-04-27 13:20 | 39.43196 | 27.27308 | 33122 ft | 474 kts | 152° |
| 2026-04-27 13:21 | 39.37456 | 27.31489 | 33123 ft | 474 kts | 152° |
| 2026-04-27 13:21 | 39.31698 | 27.35665 | 33127 ft | 474 kts | 153° |
| 2026-04-27 13:22 | 39.25948 | 27.39828 | 33122 ft | 474 kts | 153° |
| 2026-04-27 13:22 | 39.20232 | 27.43958 | 33116 ft | 474 kts | 153° |
| 2026-04-27 13:23 | 39.14474 | 27.48110 | 33111 ft | 474 kts | 153° |
| 2026-04-27 13:23 | 39.08676 | 27.52284 | 33105 ft | 474 kts | 152° |
| 2026-04-27 13:24 | 39.02953 | 27.56395 | 33092 ft | 474 kts | 152° |
| 2026-04-27 13:24 | 38.97192 | 27.60526 | 33096 ft | 474 kts | 152° |
| 2026-04-27 13:25 | 38.91410 | 27.64664 | 33089 ft | 475 kts | 152° |
| 2026-04-27 13:25 | 38.85636 | 27.68789 | 33084 ft | 475 kts | 152° |
| 2026-04-27 13:26 | 38.79896 | 27.72882 | 33078 ft | 475 kts | 152° |
| 2026-04-27 13:26 | 38.74116 | 27.76996 | 33073 ft | 475 kts | 152° |
| 2026-04-27 13:27 | 38.68319 | 27.81114 | 33069 ft | 475 kts | 152° |
| 2026-04-27 13:27 | 38.62561 | 27.85197 | 33062 ft | 474 kts | 152° |
| 2026-04-27 13:28 | 38.56773 | 27.89293 | 33061 ft | 473 kts | 152° |
| 2026-04-27 13:28 | 38.51050 | 27.93336 | 33057 ft | 473 kts | 152° |
| 2026-04-27 13:29 | 38.45302 | 27.97389 | 33052 ft | 472 kts | 152° |
| 2026-04-27 13:29 | 38.39552 | 28.01436 | 33048 ft | 472 kts | 152° |
| 2026-04-27 13:30 | 38.33803 | 28.05475 | 33045 ft | 472 kts | 152° |
| 2026-04-27 13:30 | 38.28040 | 28.09517 | 33047 ft | 472 kts | 152° |
| 2026-04-27 13:31 | 38.22300 | 28.13535 | 33049 ft | 472 kts | 152° |
| 2026-04-27 13:31 | 38.16553 | 28.17552 | 33052 ft | 472 kts | 152° |
| 2026-04-27 13:32 | 38.10782 | 28.21576 | 33036 ft | 472 kts | 152° |
| 2026-04-27 13:32 | 38.07902 | 28.23581 | 32769 ft | 475 kts | 152° |
| 2026-04-27 13:32 | 38.05023 | 28.25585 | 32284 ft | 475 kts | 152° |
| 2026-04-27 13:33 | 38.02131 | 28.27596 | 31846 ft | 474 kts | 152° |
| 2026-04-27 13:33 | 37.99241 | 28.29603 | 31314 ft | 471 kts | 152° |
| 2026-04-27 13:33 | 37.96378 | 28.31591 | 30718 ft | 467 kts | 152° |
| 2026-04-27 13:33 | 37.93533 | 28.33563 | 30134 ft | 465 kts | 152° |
| 2026-04-27 13:34 | 37.90695 | 28.35530 | 29485 ft | 461 kts | 152° |
| 2026-04-27 13:34 | 37.87864 | 28.37489 | 28889 ft | 456 kts | 152° |
| 2026-04-27 13:34 | 37.85124 | 28.39383 | 28364 ft | 451 kts | 152° |
| 2026-04-27 13:34 | 37.82370 | 28.41286 | 27816 ft | 447 kts | 152° |
| 2026-04-27 13:35 | 37.79651 | 28.43164 | 27270 ft | 443 kts | 152° |
| 2026-04-27 13:35 | 37.76960 | 28.45019 | 26726 ft | 439 kts | 152° |
| 2026-04-27 13:35 | 37.74290 | 28.46859 | 26186 ft | 435 kts | 152° |
| 2026-04-27 13:35 | 37.71642 | 28.48683 | 25649 ft | 432 kts | 152° |
| 2026-04-27 13:36 | 37.69007 | 28.50497 | 25117 ft | 429 kts | 152° |
| 2026-04-27 13:36 | 37.66398 | 28.52291 | 24584 ft | 426 kts | 152° |
| 2026-04-27 13:36 | 37.63797 | 28.54079 | 24055 ft | 424 kts | 151° |
| 2026-04-27 13:36 | 37.61245 | 28.55831 | 23531 ft | 421 kts | 151° |
| 2026-04-27 13:37 | 37.58649 | 28.57612 | 22909 ft | 419 kts | 151° |
| 2026-04-27 13:37 | 37.56126 | 28.59341 | 22381 ft | 415 kts | 151° |
| 2026-04-27 13:37 | 37.53607 | 28.61063 | 21875 ft | 410 kts | 152° |
| 2026-04-27 13:37 | 37.50935 | 28.62274 | 21253 ft | 408 kts | 170° |
| 2026-04-27 13:38 | 37.48129 | 28.62393 | 20755 ft | 402 kts | 188° |
| 2026-04-27 13:38 | 37.45400 | 28.61678 | 20319 ft | 396 kts | 194° |
| 2026-04-27 13:38 | 37.42738 | 28.60834 | 19818 ft | 393 kts | 195° |
| 2026-04-27 13:38 | 37.40118 | 28.59956 | 19326 ft | 390 kts | 196° |
| 2026-04-27 13:39 | 37.37498 | 28.59056 | 18830 ft | 388 kts | 196° |
| 2026-04-27 13:39 | 37.34903 | 28.58150 | 18351 ft | 385 kts | 197° |
| 2026-04-27 13:39 | 37.32329 | 28.57244 | 17800 ft | 383 kts | 197° |
| 2026-04-27 13:39 | 37.29730 | 28.56601 | 17274 ft | 381 kts | 181° |
| 2026-04-27 13:40 | 37.27151 | 28.56982 | 17127 ft | 368 kts | 168° |
| 2026-04-27 13:40 | 37.24694 | 28.57662 | 16962 ft | 356 kts | 167° |
| 2026-04-27 13:40 | 37.22335 | 28.58347 | 16768 ft | 347 kts | 167° |
| 2026-04-27 13:40 | 37.20046 | 28.59031 | 16583 ft | 337 kts | 167° |
| 2026-04-27 13:41 | 37.17795 | 28.59716 | 16429 ft | 320 kts | 166° |
| 2026-04-27 13:41 | 37.15716 | 28.60572 | 16037 ft | 316 kts | 151° |
| 2026-04-27 13:41 | 37.14002 | 28.62291 | 15679 ft | 310 kts | 128° |
| 2026-04-27 13:41 | 37.12956 | 28.64579 | 15352 ft | 304 kts | 107° |
| 2026-04-27 13:42 | 37.12604 | 28.67162 | 14999 ft | 302 kts | 88° |
| 2026-04-27 13:42 | 37.12777 | 28.69778 | 14653 ft | 302 kts | 82° |
| 2026-04-27 13:42 | 37.13052 | 28.72397 | 14289 ft | 304 kts | 80° |
| 2026-04-27 13:42 | 37.13367 | 28.75018 | 13915 ft | 304 kts | 79° |
| 2026-04-27 13:43 | 37.13704 | 28.77628 | 13523 ft | 303 kts | 79° |
| 2026-04-27 13:43 | 37.14047 | 28.80205 | 13098 ft | 302 kts | 79° |
| 2026-04-27 13:43 | 37.14402 | 28.82809 | 12733 ft | 299 kts | 79° |
| 2026-04-27 13:43 | 37.14752 | 28.85343 | 12388 ft | 296 kts | 79° |
| 2026-04-27 13:44 | 37.15103 | 28.87868 | 12045 ft | 293 kts | 79° |
| 2026-04-27 13:44 | 37.15450 | 28.90368 | 11757 ft | 288 kts | 79° |
| 2026-04-27 13:44 | 37.15753 | 28.92832 | 11402 ft | 287 kts | 87° |
| 2026-04-27 13:44 | 37.15401 | 28.95313 | 10883 ft | 292 kts | 114° |
| 2026-04-27 13:45 | 37.14236 | 28.97362 | 10513 ft | 291 kts | 136° |
| 2026-04-27 13:45 | 37.12760 | 28.99076 | 10208 ft | 287 kts | 136° |
| 2026-04-27 13:45 | 37.11297 | 29.00766 | 9887 ft | 285 kts | 137° |
| 2026-04-27 13:45 | 37.09841 | 29.02430 | 9506 ft | 283 kts | 137° |
| 2026-04-27 13:46 | 37.08411 | 29.04063 | 9308 ft | 274 kts | 137° |
| 2026-04-27 13:46 | 37.07030 | 29.05645 | 9180 ft | 264 kts | 137° |
| 2026-04-27 13:46 | 37.05684 | 29.07176 | 9144 ft | 260 kts | 140° |
| 2026-04-27 13:46 | 37.04091 | 29.08169 | 9105 ft | 257 kts | 174° |
| 2026-04-27 13:47 | 37.02344 | 29.07881 | 9006 ft | 257 kts | 206° |
| 2026-04-27 13:47 | 37.00868 | 29.06619 | 8536 ft | 260 kts | 223° |
| 2026-04-27 13:47 | 36.99515 | 29.05060 | 7972 ft | 269 kts | 224° |
| 2026-04-27 13:47 | 36.98132 | 29.03435 | 7392 ft | 278 kts | 224° |
| 2026-04-27 13:48 | 36.96708 | 29.01756 | 6886 ft | 279 kts | 224° |
| 2026-04-27 13:48 | 36.95332 | 29.00128 | 6460 ft | 273 kts | 224° |
| 2026-04-27 13:48 | 36.93956 | 28.98499 | 6019 ft | 266 kts | 224° |
| 2026-04-27 13:48 | 36.92635 | 28.96926 | 5584 ft | 260 kts | 224° |
| 2026-04-27 13:49 | 36.91358 | 28.95401 | 5169 ft | 255 kts | 224° |
| 2026-04-27 13:49 | 36.90081 | 28.93881 | 4757 ft | 251 kts | 224° |
| 2026-04-27 13:49 | 36.88840 | 28.92402 | 4364 ft | 244 kts | 224° |
| 2026-04-27 13:49 | 36.87626 | 28.90959 | 3931 ft | 238 kts | 224° |
| 2026-04-27 13:50 | 36.86429 | 28.89533 | 3506 ft | 236 kts | 223° |
| 2026-04-27 13:50 | 36.85136 | 28.88292 | 3121 ft | 234 kts | 214° |
| 2026-04-27 13:50 | 36.83798 | 28.87222 | 2893 ft | 220 kts | 213° |
| 2026-04-27 13:50 | 36.82544 | 28.86188 | 2626 ft | 216 kts | 217° |
| 2026-04-27 13:51 | 36.81417 | 28.85068 | 2439 ft | 193 kts | 221° |
| 2026-04-27 13:51 | 36.80475 | 28.84019 | 2306 ft | 176 kts | 227° |
| 2026-04-27 13:51 | 36.79644 | 28.82910 | 1862 ft | 173 kts | 227° |
| 2026-04-27 13:51 | 36.78746 | 28.81951 | 1451 ft | 166 kts | 211° |
| 2026-04-27 13:52 | 36.77721 | 28.81449 | 1105 ft | 156 kts | 195° |
| 2026-04-27 13:52 | 36.76707 | 28.81096 | 949 ft | 149 kts | 198° |
| 2026-04-27 13:52 | 36.75719 | 28.80737 | 725 ft | 148 kts | 196° |
| 2026-04-27 13:52 | 36.74727 | 28.80395 | 519 ft | 148 kts | 195° |
| 2026-04-27 13:53 | 36.73060 | 28.79846 | 136 ft | 150 kts | 197° |
| 2026-04-27 13:53 | 36.71786 | 28.79409 | 15 ft | 121 kts | 194° |
| 2026-04-27 13:53 | 36.71346 | 28.79261 | 15 ft | 72 kts | 195° |
| 2026-04-27 13:54 | 36.70969 | 28.79136 | 15 ft | 45 kts | 195° |
| 2026-04-27 13:54 | 36.70751 | 28.79051 | 15 ft | 26 kts | 206° |
| 2026-04-27 13:54 | 36.70619 | 28.78927 | 15 ft | 14 kts | 222° |
| 2026-04-27 13:54 | 36.70568 | 28.78858 | 15 ft | 7 kts | 246° |
| 2026-04-27 13:55 | 36.70572 | 28.78819 | 15 ft | 3 kts | 300° |
| 2026-04-27 13:55 | 36.70586 | 28.78806 | 16 ft | 4 kts | 334° |
| 2026-04-27 13:55 | 36.70653 | 28.78810 | 15 ft | 15 kts | 14° |
| 2026-04-27 13:55 | 36.70770 | 28.78851 | 15 ft | 19 kts | 15° |
| 2026-04-27 13:56 | 36.70904 | 28.78898 | 15 ft | 21 kts | 16° |
| 2026-04-27 13:56 | 36.71050 | 28.78948 | 15 ft | 23 kts | 15° |
| 2026-04-27 13:56 | 36.71209 | 28.79002 | 15 ft | 23 kts | 17° |
| 2026-04-27 13:56 | 36.71343 | 28.79022 | 15 ft | 14 kts | 327° |
| 2026-04-27 13:57 | 36.71377 | 28.78956 | 15 ft | 9 kts | 299° |
| 2026-04-27 13:57 | 36.71415 | 28.78879 | 15 ft | 11 kts | 316° |
| 2026-04-27 13:57 | 36.71484 | 28.78864 | 15 ft | 10 kts | 8° |
| 2026-04-27 13:57 | 36.71546 | 28.78891 | 15 ft | 10 kts | 18° |
| 2026-04-27 13:58 | 36.71622 | 28.78919 | 15 ft | 13 kts | 15° |
| 2026-04-27 13:58 | 36.71715 | 28.78952 | 17 ft | 15 kts | 15° |
| 2026-04-27 13:58 | 36.71825 | 28.78990 | 15 ft | 17 kts | 15° |
| 2026-04-27 13:58 | 36.71949 | 28.79032 | 15 ft | 19 kts | 15° |
| 2026-04-27 13:59 | 36.72062 | 28.79071 | 15 ft | 15 kts | 15° |
| 2026-04-27 13:59 | 36.72135 | 28.79087 | 14 ft | 6 kts | 343° |
| 2026-04-27 13:59 | 36.72138 | 28.79083 | 14 ft | 0 kts | 310° |
| 2026-04-27 13:59 | 36.72139 | 28.79075 | 14 ft | 4 kts | 288° |
| 2026-04-27 14:00 | 36.72144 | 28.79048 | 14 ft | 3 kts | 286° |
| 2026-04-27 14:00 | 36.72148 | 28.79025 | 14 ft | 0 kts | 284° |
| 2026-04-27 14:00 | 36.72148 | 28.79024 | 14 ft | 0 kts | 284° |